Time;durP1;ratioP1;P1;durP2;ratioP2;P2;SDS_P1;SDS_P2;PMS_P1;PMS_P2;Temp;Humidity;BMP_temperature;BMP_pressure;BME280_temperature;BME280_humidity;BME280_pressure;Samples;Min_cycle;Max_cycle;Signal;HPM_P1;HPM_P2
2022/03/02 00:02:18;;;;;;;;;;;4.60;99.90;;;;;;5053956;28;19943;-57
2022/03/02 00:04:44;;;;;;;;;;;4.50;99.90;;;;;;5053516;28;20383;-57
2022/03/02 00:07:11;;;;;;;;;;;4.60;99.90;;;;;;5054108;28;20050;-57
2022/03/02 00:09:37;;;;;;;;;;;4.60;99.90;;;;;;5054138;28;19921;-57
2022/03/02 00:12:05;;;;;;;;;;;4.60;99.90;;;;;;5054347;28;19944;-56
2022/03/02 00:14:32;;;;;;;;;;;4.60;99.90;;;;;;5053886;28;19982;-57
2022/03/02 00:16:58;;;;;;;;;;;4.50;99.90;;;;;;5053324;28;20388;-58
2022/03/02 00:19:25;;;;;;;;;;;4.50;99.90;;;;;;5053841;28;19966;-58
2022/03/02 00:21:52;;;;;;;;;;;4.50;99.90;;;;;;5053379;28;20346;-56
2022/03/02 00:24:20;;;;;;;;;;;4.50;99.90;;;;;;5053470;28;19982;-57
2022/03/02 00:26:46;;;;;;;;;;;4.60;99.90;;;;;;5053004;28;19921;-57
2022/03/02 00:29:14;;;;;;;;;;;4.50;99.90;;;;;;5053462;28;19974;-58
2022/03/02 00:31:41;;;;;;;;;;;4.50;99.50;;;;;;5053592;28;19976;-56
2022/03/02 00:34:07;;;;;;;;;;;4.50;99.90;;;;;;5053489;28;20305;-56
2022/03/02 00:36:34;;;;;;;;;;;4.50;99.90;;;;;;5053395;28;19975;-57
2022/03/02 00:39:01;;;;;;;;;;;4.50;99.90;;;;;;5053218;28;20015;-57
2022/03/02 00:41:27;;;;;;;;;;;4.40;99.60;;;;;;5053305;28;19927;-57
2022/03/02 00:43:54;;;;;;;;;;;4.40;99.30;;;;;;5053086;28;20422;-55
2022/03/02 00:46:26;;;;;;;;;;;4.30;99.30;;;;;;5053506;28;19968;-53
2022/03/02 00:48:53;;;;;;;;;;;4.30;98.60;;;;;;5052929;28;20027;-55
2022/03/02 00:51:19;;;;;;;;;;;4.10;97.80;;;;;;5052971;28;19921;-56
2022/03/02 00:53:46;;;;;;;;;;;4.00;97.10;;;;;;5052988;28;19974;-53
2022/03/02 00:56:13;;;;;;;;;;;4.00;97.10;;;;;;5052525;28;19982;-57
2022/03/02 00:58:39;;;;;;;;;;;3.90;96.40;;;;;;5052740;28;19978;-56
2022/03/02 01:01:06;;;;;;;;;;;4.00;96.70;;;;;;5053041;28;19920;-55
2022/03/02 01:03:34;;;;;;;;;;;4.00;97.60;;;;;;5052813;28;19927;-57
2022/03/02 01:06:03;;;;;;;;;;;4.00;98.00;;;;;;5052456;28;19920;-53
2022/03/02 01:08:29;;;;;;;;;;;4.10;98.20;;;;;;5052703;28;19921;-57
2022/03/02 01:10:56;;;;;;;;;;;4.00;98.20;;;;;;5052357;28;19921;-56
2022/03/02 01:13:22;;;;;;;;;;;4.00;97.90;;;;;;5052502;28;19978;-53
2022/03/02 01:15:49;;;;;;;;;;;4.00;97.20;;;;;;5052405;28;19924;-55
2022/03/02 01:18:16;;;;;;;;;;;3.90;96.60;;;;;;5052179;28;20417;-56
2022/03/02 01:20:43;;;;;;;;;;;3.90;96.60;;;;;;5052387;28;20387;-55
2022/03/02 01:23:10;;;;;;;;;;;3.90;96.50;;;;;;5052197;28;19967;-55
2022/03/02 01:25:37;;;;;;;;;;;3.80;96.20;;;;;;5052109;28;19928;-53
2022/03/02 01:28:04;;;;;;;;;;;3.80;96.00;;;;;;5052491;28;20441;-53
2022/03/02 01:30:31;;;;;;;;;;;3.80;96.00;;;;;;5052613;28;19925;-56
2022/03/02 01:32:57;;;;;;;;;;;3.80;95.90;;;;;;5052451;28;19974;-55
2022/03/02 01:35:24;;;;;;;;;;;3.80;95.70;;;;;;5052419;28;19935;-55
2022/03/02 01:37:52;;;;;;;;;;;3.70;95.50;;;;;;5052050;28;19920;-55
2022/03/02 01:40:19;;;;;;;;;;;3.70;95.30;;;;;;5051878;28;19920;-58
2022/03/02 01:42:45;;;;;;;;;;;3.70;95.00;;;;;;5052396;28;19921;-57
2022/03/02 01:45:13;;;;;;;;;;;3.70;95.00;;;;;;5052213;28;19974;-53
2022/03/02 01:47:40;;;;;;;;;;;3.60;95.10;;;;;;5051801;28;19975;-57
2022/03/02 01:50:08;;;;;;;;;;;3.50;94.00;;;;;;5051988;28;19928;-58
2022/03/02 01:52:34;;;;;;;;;;;3.40;94.00;;;;;;5051676;28;19994;-55
2022/03/02 01:55:03;;;;;;;;;;;3.20;93.00;;;;;;5052017;28;20294;-58
2022/03/02 01:57:30;;;;;;;;;;;3.10;92.50;;;;;;5051648;28;19921;-56
2022/03/02 01:59:56;;;;;;;;;;;3.00;92.40;;;;;;5052062;28;19990;-56
2022/03/02 02:02:23;;;;;;;;;;;2.90;92.40;;;;;;5051864;28;20016;-56
2022/03/02 02:04:49;;;;;;;;;;;2.90;93.20;;;;;;5051791;28;19925;-57
2022/03/02 02:07:16;;;;;;;;;;;3.00;93.00;;;;;;5051390;28;20338;-56
2022/03/02 02:09:43;;;;;;;;;;;3.00;93.10;;;;;;5051638;28;19924;-58
2022/03/02 02:12:11;;;;;;;;;;;3.00;92.80;;;;;;5054575;28;19921;-58
2022/03/02 02:14:38;;;;;;;;;;;2.90;93.00;;;;;;5058120;28;19936;-57
2022/03/02 02:17:04;;;;;;;;;;;2.80;92.80;;;;;;5058047;28;19936;-58
2022/03/02 02:19:31;;;;;;;;;;;2.70;92.30;;;;;;5058147;28;19920;-57
2022/03/02 02:21:59;;;;;;;;;;;2.70;92.10;;;;;;5058186;28;19981;-57
2022/03/02 02:24:26;;;;;;;;;;;2.70;92.90;;;;;;5058227;28;19924;-57
2022/03/02 02:26:52;;;;;;;;;;;2.80;93.40;;;;;;5057965;28;19920;-55
2022/03/02 02:29:19;;;;;;;;;;;2.80;94.00;;;;;;5058353;28;19950;-56
2022/03/02 02:31:46;;;;;;;;;;;2.90;94.80;;;;;;5058545;28;19966;-57
2022/03/02 02:34:12;;;;;;;;;;;2.90;94.70;;;;;;5058206;28;19924;-57
2022/03/02 02:36:39;;;;;;;;;;;2.80;95.00;;;;;;5057864;28;20272;-57
2022/03/02 02:39:07;;;;;;;;;;;2.80;95.00;;;;;;5058818;28;19974;-56
2022/03/02 02:41:34;;;;;;;;;;;2.80;94.80;;;;;;5058653;28;20118;-54
2022/03/02 02:44:01;;;;;;;;;;;2.70;95.00;;;;;;5058483;28;19921;-55
2022/03/02 02:46:27;;;;;;;;;;;2.60;95.00;;;;;;5058503;28;19921;-57
2022/03/02 02:48:54;;;;;;;;;;;2.60;95.70;;;;;;5058574;28;19920;-56
2022/03/02 02:51:20;;;;;;;;;;;2.50;95.20;;;;;;5059283;28;19975;-57
2022/03/02 02:53:47;;;;;;;;;;;2.50;94.70;;;;;;5058868;28;19990;-56
2022/03/02 02:56:15;;;;;;;;;;;2.50;95.30;;;;;;5058504;28;19925;-53
2022/03/02 02:58:41;;;;;;;;;;;2.50;95.60;;;;;;5058804;28;19920;-53
2022/03/02 03:01:08;;;;;;;;;;;2.50;95.90;;;;;;5058371;28;19920;-57
2022/03/02 03:03:34;;;;;;;;;;;2.50;96.00;;;;;;5058082;28;19920;-56
2022/03/02 03:06:01;;;;;;;;;;;2.40;96.20;;;;;;5058502;28;19924;-56
2022/03/02 03:08:28;;;;;;;;;;;2.50;96.60;;;;;;5058514;28;19921;-56
2022/03/02 03:10:54;;;;;;;;;;;2.60;97.10;;;;;;5058280;28;19920;-57
2022/03/02 03:13:23;;;;;;;;;;;2.50;97.60;;;;;;5058469;28;19921;-56
2022/03/02 03:15:50;;;;;;;;;;;2.60;96.80;;;;;;5058064;28;19929;-54
2022/03/02 03:18:16;;;;;;;;;;;2.60;96.90;;;;;;5058015;28;19975;-55
2022/03/02 03:20:43;;;;;;;;;;;2.60;97.10;;;;;;5058789;28;19966;-56
2022/03/02 03:23:10;;;;;;;;;;;2.60;97.70;;;;;;5056200;28;19920;-59
2022/03/02 03:25:36;;;;;;;;;;;2.50;96.70;;;;;;5054653;28;19921;-56
2022/03/02 03:28:04;;;;;;;;;;;2.50;96.60;;;;;;5054696;28;19920;-57
2022/03/02 03:30:32;;;;;;;;;;;2.50;97.60;;;;;;5054755;28;19924;-56
2022/03/02 03:33:00;;;;;;;;;;;2.50;97.50;;;;;;5054757;28;19994;-55
2022/03/02 03:35:27;;;;;;;;;;;2.50;98.10;;;;;;5054835;28;19990;-56
2022/03/02 03:37:53;;;;;;;;;;;2.40;98.30;;;;;;5055156;28;19974;-58
2022/03/02 03:40:21;;;;;;;;;;;2.40;99.30;;;;;;5055036;28;19947;-59
2022/03/02 03:42:48;;;;;;;;;;;2.30;99.90;;;;;;5055019;28;20431;-56
2022/03/02 03:45:15;;;;;;;;;;;2.30;99.90;;;;;;5054209;28;19921;-57
2022/03/02 03:47:43;;;;;;;;;;;2.30;99.90;;;;;;5054837;28;19925;-57
2022/03/02 03:50:10;;;;;;;;;;;2.30;99.90;;;;;;5054444;28;20391;-57
2022/03/02 03:52:37;;;;;;;;;;;2.30;99.90;;;;;;5054402;28;20395;-58
2022/03/02 03:55:04;;;;;;;;;;;2.30;99.90;;;;;;5054526;28;19920;-56
2022/03/02 03:57:31;;;;;;;;;;;2.30;99.90;;;;;;5054163;28;19921;-57
2022/03/02 03:59:57;;;;;;;;;;;2.30;99.90;;;;;;5054693;28;19928;-55
2022/03/02 04:02:24;;;;;;;;;;;2.30;99.90;;;;;;5054534;28;20306;-58
2022/03/02 04:04:52;;;;;;;;;;;2.30;99.90;;;;;;5054882;28;19978;-54
2022/03/02 04:07:18;;;;;;;;;;;2.30;99.90;;;;;;5054202;28;19927;-55
2022/03/02 04:09:45;;;;;;;;;;;2.40;99.90;;;;;;5054275;28;19982;-56
2022/03/02 04:12:11;;;;;;;;;;;2.40;99.90;;;;;;5054370;28;19970;-54
2022/03/02 04:14:38;;;;;;;;;;;2.30;99.90;;;;;;5054528;28;19921;-55
2022/03/02 04:17:04;;;;;;;;;;;2.30;99.90;;;;;;5054145;28;20421;-56
2022/03/02 04:19:31;;;;;;;;;;;2.30;99.90;;;;;;5054133;28;19921;-56
2022/03/02 04:21:59;;;;;;;;;;;2.40;99.90;;;;;;5054075;28;20416;-55
2022/03/02 04:24:25;;;;;;;;;;;2.30;99.90;;;;;;5053775;28;20375;-56
2022/03/02 04:26:52;;;;;;;;;;;2.30;99.90;;;;;;5053669;28;19920;-54
2022/03/02 04:29:18;;;;;;;;;;;2.20;99.90;;;;;;5054103;28;19990;-56
2022/03/02 04:31:45;;;;;;;;;;;2.20;99.90;;;;;;5053790;28;19975;-57
2022/03/02 04:34:11;;;;;;;;;;;2.20;99.90;;;;;;5053767;28;19982;-56
2022/03/02 04:36:38;;;;;;;;;;;2.20;99.90;;;;;;5053215;28;19921;-55
2022/03/02 04:39:06;;;;;;;;;;;2.20;99.90;;;;;;5053693;28;19974;-55
2022/03/02 04:41:32;;;;;;;;;;;2.20;99.90;;;;;;5053315;28;20346;-57
2022/03/02 04:44:00;;;;;;;;;;;2.20;99.90;;;;;;5053812;28;19924;-54
2022/03/02 04:46:26;;;;;;;;;;;2.20;99.90;;;;;;5053470;28;19924;-54
2022/03/02 04:48:53;;;;;;;;;;;2.20;99.90;;;;;;5053407;28;19947;-57
2022/03/02 04:51:19;;;;;;;;;;;2.20;99.90;;;;;;5053541;28;19947;-57
2022/03/02 04:53:46;;;;;;;;;;;2.20;99.90;;;;;;5053261;28;19925;-53
2022/03/02 04:56:14;;;;;;;;;;;2.20;99.90;;;;;;5053065;28;19925;-58
2022/03/02 04:58:40;;;;;;;;;;;2.20;99.90;;;;;;5053110;28;20371;-57
2022/03/02 05:01:07;;;;;;;;;;;2.10;99.90;;;;;;5053469;28;19932;-55
2022/03/02 05:03:33;;;;;;;;;;;2.10;99.90;;;;;;5053278;28;19920;-55
2022/03/02 05:06:00;;;;;;;;;;;2.10;99.90;;;;;;5052965;28;19967;-54
2022/03/02 05:08:26;;;;;;;;;;;2.10;99.90;;;;;;5053249;28;19978;-56
2022/03/02 05:10:53;;;;;;;;;;;2.10;99.90;;;;;;5053519;28;19921;-56
2022/03/02 05:13:21;;;;;;;;;;;2.00;99.90;;;;;;5053227;28;19920;-54
2022/03/02 05:15:47;;;;;;;;;;;2.00;99.90;;;;;;5052735;28;19921;-57
2022/03/02 05:18:14;;;;;;;;;;;2.00;99.90;;;;;;5053051;28;20346;-58
2022/03/02 05:20:40;;;;;;;;;;;2.00;99.90;;;;;;5052923;28;20059;-53
2022/03/02 05:23:07;;;;;;;;;;;1.90;99.90;;;;;;5052675;28;19924;-57
2022/03/02 05:25:33;;;;;;;;;;;1.90;99.90;;;;;;5052934;28;19928;-54
2022/03/02 05:28:00;;;;;;;;;;;1.80;99.90;;;;;;5052738;28;20276;-58
2022/03/02 05:30:27;;;;;;;;;;;1.80;99.90;;;;;;5052958;28;19924;-51
2022/03/02 05:32:54;;;;;;;;;;;1.80;99.90;;;;;;5052709;28;19921;-55
2022/03/02 05:35:21;;;;;;;;;;;1.80;99.90;;;;;;5052603;28;19927;-55
2022/03/02 05:37:47;;;;;;;;;;;1.80;99.90;;;;;;5052582;28;19920;-56
2022/03/02 05:40:15;;;;;;;;;;;1.80;99.90;;;;;;5050850;28;19921;-57
2022/03/02 05:42:41;;;;;;;;;;;1.90;99.90;;;;;;5049390;28;19925;-56
2022/03/02 05:45:09;;;;;;;;;;;1.80;99.90;;;;;;5032279;28;19921;-60
2022/03/02 05:47:37;;;;;;;;;;;1.80;99.90;;;;;;5032097;28;20019;-54
2022/03/02 05:50:03;;;;;;;;;;;1.80;99.90;;;;;;5032471;28;19991;-56
2022/03/02 05:52:30;;;;;;;;;;;1.80;99.90;;;;;;5032467;28;19925;-60
2022/03/02 05:54:56;;;;;;;;;;;1.70;99.90;;;;;;5033024;28;19925;-58
2022/03/02 05:57:23;;;;;;;;;;;1.80;99.90;;;;;;5032258;28;19925;-58
2022/03/02 05:59:49;;;;;;;;;;;1.80;99.90;;;;;;5032621;28;19921;-57
2022/03/02 06:02:16;;;;;;;;;;;1.80;99.90;;;;;;5032542;28;20391;-57
2022/03/02 06:04:44;;;;;;;;;;;1.80;99.90;;;;;;5032855;28;19921;-58
2022/03/02 06:07:10;;;;;;;;;;;1.70;99.90;;;;;;5032431;28;19921;-57
2022/03/02 06:09:37;;;;;;;;;;;1.70;99.90;;;;;;5032106;28;19925;-58
2022/03/02 06:12:04;;;;;;;;;;;1.70;99.90;;;;;;5032347;28;19967;-58
2022/03/02 06:14:31;;;;;;;;;;;1.80;99.90;;;;;;5032262;28;19975;-59
2022/03/02 06:16:58;;;;;;;;;;;1.80;99.90;;;;;;5032241;28;19933;-59
2022/03/02 06:19:24;;;;;;;;;;;1.80;99.90;;;;;;5032079;28;19920;-56
2022/03/02 06:21:53;;;;;;;;;;;1.80;99.90;;;;;;5032799;28;19925;-59
2022/03/02 06:24:19;;;;;;;;;;;1.90;99.90;;;;;;5032418;28;19925;-59
2022/03/02 06:26:46;;;;;;;;;;;1.90;99.90;;;;;;5041713;28;19928;-60
2022/03/02 06:29:13;;;;;;;;;;;1.90;99.90;;;;;;5048330;28;19974;-58
2022/03/02 06:31:40;;;;;;;;;;;2.00;99.90;;;;;;5051616;28;19983;-59
2022/03/02 06:34:06;;;;;;;;;;;2.00;99.90;;;;;;5051718;28;19929;-58
2022/03/02 06:36:33;;;;;;;;;;;2.00;99.90;;;;;;5051134;28;19920;-57
2022/03/02 06:39:01;;;;;;;;;;;2.00;99.90;;;;;;5052161;28;19920;-58
2022/03/02 06:41:29;;;;;;;;;;;2.00;99.90;;;;;;5051493;28;19924;-60
2022/03/02 06:43:57;;;;;;;;;;;2.10;99.90;;;;;;5051233;28;19928;-59
2022/03/02 06:46:29;;;;;;;;;;;2.20;99.90;;;;;;5051017;28;20027;-60
2022/03/02 06:48:57;;;;;;;;;;;2.20;99.90;;;;;;5051114;28;20379;-59
2022/03/02 06:51:26;;;;;;;;;;;2.30;99.90;;;;;;5051562;28;19921;-60
2022/03/02 06:53:54;;;;;;;;;;;2.30;99.90;;;;;;5051361;28;19978;-60
2022/03/02 06:56:22;;;;;;;;;;;2.30;99.90;;;;;;5050688;28;20383;-59
2022/03/02 06:58:50;;;;;;;;;;;2.40;99.90;;;;;;5053922;28;20329;-60
2022/03/02 07:01:22;;;;;;;;;;;2.40;99.90;;;;;;5054744;28;19928;-61
2022/03/02 07:03:50;;;;;;;;;;;2.50;99.90;;;;;;5055278;28;19921;-61
2022/03/02 07:06:17;;;;;;;;;;;2.60;99.90;;;;;;5054593;28;20390;-62
2022/03/02 07:08:45;;;;;;;;;;;2.60;99.90;;;;;;5054972;28;19921;-60
2022/03/02 07:11:11;;;;;;;;;;;2.70;99.90;;;;;;5055188;28;19950;-59
2022/03/02 07:13:39;;;;;;;;;;;2.80;99.90;;;;;;5054800;28;19927;-56
2022/03/02 07:16:06;;;;;;;;;;;2.90;99.90;;;;;;5055598;28;19952;-60
2022/03/02 07:18:33;;;;;;;;;;;2.90;99.90;;;;;;5055558;28;19924;-59
2022/03/02 07:20:59;;;;;;;;;;;3.00;99.90;;;;;;5055277;28;19966;-58
2022/03/02 07:23:34;;;;;;;;;;;3.00;99.90;;;;;;5055182;28;19920;-57
2022/03/02 07:26:01;;;;;;;;;;;3.00;99.90;;;;;;5054218;28;19928;-59
2022/03/02 07:28:28;;;;;;;;;;;3.10;99.90;;;;;;5054601;28;19924;-59
2022/03/02 07:30:57;;;;;;;;;;;3.20;99.90;;;;;;5054451;28;19952;-64
2022/03/02 07:33:24;;;;;;;;;;;3.20;99.90;;;;;;5054581;28;19921;-59
2022/03/02 07:35:55;;;;;;;;;;;3.20;99.90;;;;;;5054010;28;19932;-60
2022/03/02 07:38:22;;;;;;;;;;;3.30;99.90;;;;;;5054135;28;19953;-60
2022/03/02 07:40:49;;;;;;;;;;;3.30;99.90;;;;;;5054455;28;19925;-61
2022/03/02 07:43:16;;;;;;;;;;;3.50;99.90;;;;;;5054569;28;19925;-60
2022/03/02 07:45:42;;;;;;;;;;;3.60;99.90;;;;;;5054240;28;19943;-60
2022/03/02 07:48:10;;;;;;;;;;;3.70;99.90;;;;;;5053656;28;19920;-61
2022/03/02 07:50:37;;;;;;;;;;;3.80;99.90;;;;;;5053979;28;20411;-60
2022/03/02 07:53:04;;;;;;;;;;;3.90;99.90;;;;;;5054380;28;20272;-61
2022/03/02 07:55:31;;;;;;;;;;;4.10;99.90;;;;;;5053887;28;19921;-61
2022/03/02 07:57:59;;;;;;;;;;;4.20;99.90;;;;;;5053952;28;19924;-60
2022/03/02 08:00:28;;;;;;;;;;;4.40;99.90;;;;;;5053767;28;20272;-61
2022/03/02 08:02:57;;;;;;;;;;;4.60;99.90;;;;;;5054121;28;19921;-60
2022/03/02 08:05:25;;;;;;;;;;;4.70;99.90;;;;;;5053580;28;19982;-60
2022/03/02 08:07:51;;;;;;;;;;;4.80;99.90;;;;;;5053118;28;19986;-60
2022/03/02 08:10:18;;;;;;;;;;;5.00;99.90;;;;;;5052916;28;19971;-60
2022/03/02 08:12:45;;;;;;;;;;;5.10;99.90;;;;;;5054051;28;20342;-59
2022/03/02 08:15:12;;;;;;;;;;;5.30;99.90;;;;;;5053869;28;19927;-59
2022/03/02 08:17:39;;;;;;;;;;;5.40;99.90;;;;;;5053190;28;19920;-59
2022/03/02 08:20:06;;;;;;;;;;;5.50;99.90;;;;;;5053103;28;19920;-58
2022/03/02 08:22:35;;;;;;;;;;;5.50;99.90;;;;;;5053488;28;19925;-59
2022/03/02 08:25:03;;;;;;;;;;;5.60;99.90;;;;;;5053136;28;19974;-59
2022/03/02 08:27:30;;;;;;;;;;;5.80;99.90;;;;;;5038098;28;19999;-61
2022/03/02 08:29:57;;;;;;;;;;;5.90;99.90;;;;;;5033206;28;19975;-59
2022/03/02 08:32:24;;;;;;;;;;;6.00;99.90;;;;;;5033533;28;19925;-61
2022/03/02 08:34:51;;;;;;;;;;;6.20;99.90;;;;;;5033215;28;20380;-60
2022/03/02 08:37:18;;;;;;;;;;;6.30;99.90;;;;;;5032906;28;19935;-60
2022/03/02 08:39:46;;;;;;;;;;;6.50;99.90;;;;;;5032834;28;20446;-55
2022/03/02 08:42:13;;;;;;;;;;;6.60;99.90;;;;;;5032963;28;19921;-55
2022/03/02 08:44:40;;;;;;;;;;;6.60;99.90;;;;;;5033394;28;19937;-62
2022/03/02 08:47:07;;;;;;;;;;;6.70;99.90;;;;;;5033298;28;19924;-55
2022/03/02 08:49:33;;;;;;;;;;;6.80;99.90;;;;;;5032419;28;19929;-59
2022/03/02 08:52:00;;;;;;;;;;;6.90;99.90;;;;;;5033209;28;19983;-59
2022/03/02 08:54:27;;;;;;;;;;;7.00;99.90;;;;;;5032596;28;20415;-58
2022/03/02 08:56:55;;;;;;;;;;;7.10;99.90;;;;;;5033011;28;20342;-58
2022/03/02 08:59:25;;;;;;;;;;;7.20;99.90;;;;;;5032670;28;20342;-60
2022/03/02 09:01:53;;;;;;;;;;;7.30;99.90;;;;;;5032964;28;19964;-55
2022/03/02 09:04:22;;;;;;;;;;;7.40;99.90;;;;;;5033168;28;20482;-60
2022/03/02 09:06:49;;;;;;;;;;;7.50;99.90;;;;;;5032457;28;19924;-58
2022/03/02 09:09:17;;;;;;;;;;;7.60;99.90;;;;;;5032625;28;19971;-59
2022/03/02 09:11:44;;;;;;;;;;;7.70;99.90;;;;;;5032788;28;20338;-61
2022/03/02 09:14:12;;;;;;;;;;;7.80;99.90;;;;;;5032569;28;20381;-56
2022/03/02 09:16:39;;;;;;;;;;;7.80;99.90;;;;;;5032250;28;19929;-58
2022/03/02 09:19:06;;;;;;;;;;;7.70;99.90;;;;;;5032054;28;19928;-59
2022/03/02 09:21:33;;;;;;;;;;;7.70;99.90;;;;;;5031688;28;20396;-60
2022/03/02 09:23:59;;;;;;;;;;;7.60;99.90;;;;;;5032134;28;19974;-59
2022/03/02 09:26:27;;;;;;;;;;;7.70;99.90;;;;;;5032244;28;19959;-66
2022/03/02 09:28:53;;;;;;;;;;;7.70;99.90;;;;;;5031630;28;19927;-61
2022/03/02 09:31:23;;;;;;;;;;;7.70;99.90;;;;;;5032106;28;19925;-62
2022/03/02 09:33:50;;;;;;;;;;;7.80;99.90;;;;;;5032101;28;19925;-60
2022/03/02 09:36:19;;;;;;;;;;;7.80;99.90;;;;;;5031785;28;19921;-58
2022/03/02 09:38:47;;;;;;;;;;;8.00;99.90;;;;;;5031776;28;19929;-60
2022/03/02 09:41:18;;;;;;;;;;;8.10;99.90;;;;;;5032639;28;19920;-60
2022/03/02 09:43:50;;;;;;;;;;;8.30;99.90;;;;;;5032214;28;20039;-59
2022/03/02 09:46:18;;;;;;;;;;;8.30;99.90;;;;;;5032106;28;19987;-60
2022/03/02 09:48:47;;;;;;;;;;;8.30;99.90;;;;;;5031389;28;19921;-60
2022/03/02 09:51:18;;;;;;;;;;;8.40;99.90;;;;;;5032175;28;19937;-60
2022/03/02 09:53:48;;;;;;;;;;;8.50;99.90;;;;;;5032112;28;19967;-61
2022/03/02 09:56:15;;;;;;;;;;;8.70;99.90;;;;;;5031898;28;19925;-56
2022/03/02 09:58:43;;;;;;;;;;;8.60;99.90;;;;;;5032128;28;19968;-61
2022/03/02 10:01:14;;;;;;;;;;;8.70;99.90;;;;;;5032218;28;19958;-62
2022/03/02 10:03:44;;;;;;;;;;;8.80;99.90;;;;;;5032401;28;20014;-59
2022/03/02 10:06:13;;;;;;;;;;;9.00;99.90;;;;;;5031944;28;19929;-59
2022/03/02 10:08:46;;;;;;;;;;;9.10;99.90;;;;;;5031550;28;20445;-58
2022/03/02 10:11:15;;;;;;;;;;;9.20;99.90;;;;;;5031953;28;19979;-61
2022/03/02 10:13:42;;;;;;;;;;;9.30;99.90;;;;;;5031687;28;19924;-59
2022/03/02 10:16:10;;;;;;;;;;;9.40;99.90;;;;;;5031765;28;19924;-59
2022/03/02 10:18:36;;;;;;;;;;;9.30;99.90;;;;;;5030985;28;20364;-62
2022/03/02 10:21:05;;;;;;;;;;;9.30;99.90;;;;;;5031746;28;19929;-68
2022/03/02 10:23:41;;;;;;;;;;;9.50;99.90;;;;;;5031639;28;20303;-70
2022/03/02 10:26:11;;;;;;;;;;;9.70;99.90;;;;;;5031738;28;20303;-70
2022/03/02 10:28:46;;;;;;;;;;;9.50;99.90;;;;;;5031502;28;19927;-68
2022/03/02 10:31:26;;;;;;;;;;;9.50;99.90;;;;;;5031565;28;20063;-67
2022/03/02 10:33:54;;;;;;;;;;;9.70;99.90;;;;;;5035385;28;19921;-61
2022/03/02 10:36:21;;;;;;;;;;;9.50;99.90;;;;;;5035610;28;19921;-59
2022/03/02 10:38:56;;;;;;;;;;;9.60;99.90;;;;;;5035267;28;19921;-61
2022/03/02 10:41:23;;;;;;;;;;;9.70;99.90;;;;;;5035666;28;20391;-58
2022/03/02 10:43:53;;;;;;;;;;;9.80;99.90;;;;;;5035397;28;20033;-60
2022/03/02 10:46:21;;;;;;;;;;;9.50;99.90;;;;;;5035741;28;20327;-58
2022/03/02 10:48:50;;;;;;;;;;;9.70;99.90;;;;;;5034543;28;19952;-59
2022/03/02 10:51:18;;;;;;;;;;;9.70;99.90;;;;;;5035771;28;20417;-60
2022/03/02 10:53:47;;;;;;;;;;;9.30;99.90;;;;;;5036566;28;19921;-60
2022/03/02 10:56:17;;;;;;;;;;;9.40;99.90;;;;;;5037181;28;20027;-59
2022/03/02 10:58:48;;;;;;;;;;;9.50;99.90;;;;;;5035026;28;19921;-59
2022/03/02 11:01:14;;;;;;;;;;;9.70;99.90;;;;;;5035506;28;19971;-57
2022/03/02 11:03:41;;;;;;;;;;;9.80;99.90;;;;;;5035411;28;19925;-54
2022/03/02 11:06:08;;;;;;;;;;;9.80;99.90;;;;;;5035148;28;19921;-56
2022/03/02 11:08:35;;;;;;;;;;;9.80;99.90;;;;;;5034662;28;19952;-57
2022/03/02 11:11:01;;;;;;;;;;;9.80;99.90;;;;;;5035025;28;19974;-58
2022/03/02 11:13:29;;;;;;;;;;;9.80;99.90;;;;;;5035149;28;19921;-59
2022/03/02 11:15:56;;;;;;;;;;;9.90;99.90;;;;;;5034809;28;19928;-59
2022/03/02 11:18:32;;;;;;;;;;;9.80;99.90;;;;;;5034751;28;19921;-56
2022/03/02 11:20:59;;;;;;;;;;;9.90;99.90;;;;;;5035071;28;19971;-58
2022/03/02 11:23:27;;;;;;;;;;;10.10;99.90;;;;;;5034607;28;19925;-59
2022/03/02 11:25:54;;;;;;;;;;;10.00;99.90;;;;;;5034741;28;19925;-58
2022/03/02 11:28:22;;;;;;;;;;;10.00;99.90;;;;;;5040898;28;20299;-59
2022/03/02 11:30:51;;;;;;;;;;;10.10;99.90;;;;;;5054679;28;19920;-59
2022/03/02 11:33:22;;;;;;;;;;;10.20;99.90;;;;;;5054754;28;20558;-58
2022/03/02 11:35:48;;;;;;;;;;;10.30;99.90;;;;;;5054385;28;19974;-56
2022/03/02 11:38:19;;;;;;;;;;;10.40;99.90;;;;;;5054317;28;19921;-57
2022/03/02 11:40:47;;;;;;;;;;;10.40;99.90;;;;;;5054669;28;20365;-57
2022/03/02 11:43:15;;;;;;;;;;;10.30;99.90;;;;;;5054354;28;20102;-57
2022/03/02 11:45:41;;;;;;;;;;;10.30;99.90;;;;;;5053279;28;19925;-58
2022/03/02 11:48:11;;;;;;;;;;;10.30;99.90;;;;;;5053480;28;20038;-58
2022/03/02 11:50:38;;;;;;;;;;;10.40;99.90;;;;;;5053867;28;19920;-59
2022/03/02 11:53:08;;;;;;;;;;;10.40;99.90;;;;;;5054344;28;19974;-57
2022/03/02 11:55:34;;;;;;;;;;;10.30;99.90;;;;;;5054058;28;20294;-57
2022/03/02 11:58:01;;;;;;;;;;;10.40;99.90;;;;;;5054135;28;19924;-58
2022/03/02 12:00:29;;;;;;;;;;;10.60;99.90;;;;;;5053684;28;19920;-58
2022/03/02 12:02:57;;;;;;;;;;;10.70;99.90;;;;;;5054223;28;19921;-62
2022/03/02 12:05:27;;;;;;;;;;;10.80;99.90;;;;;;5054262;28;19939;-58
2022/03/02 12:08:01;;;;;;;;;;;10.90;99.90;;;;;;5053300;28;20589;-59
2022/03/02 12:10:28;;;;;;;;;;;10.80;99.90;;;;;;5054116;28;19929;-58
2022/03/02 12:12:55;;;;;;;;;;;10.90;99.90;;;;;;5053606;28;19972;-59
2022/03/02 12:15:23;;;;;;;;;;;11.00;99.90;;;;;;5053725;28;19921;-59
2022/03/02 12:17:50;;;;;;;;;;;11.10;99.90;;;;;;5052985;28;19921;-60
2022/03/02 12:20:18;;;;;;;;;;;11.20;99.90;;;;;;5053660;28;20338;-60
2022/03/02 12:22:48;;;;;;;;;;;11.10;99.90;;;;;;5054409;28;19975;-58
2022/03/02 12:25:16;;;;;;;;;;;11.10;99.90;;;;;;5053346;28;20058;-58
2022/03/02 12:27:48;;;;;;;;;;;11.00;99.90;;;;;;5053375;28;19920;-60
2022/03/02 12:30:14;;;;;;;;;;;10.90;99.90;;;;;;5052919;28;19924;-55
2022/03/02 12:32:43;;;;;;;;;;;10.80;99.90;;;;;;5053912;28;19924;-61
2022/03/02 12:35:11;;;;;;;;;;;11.00;99.90;;;;;;5053444;28;19944;-60
2022/03/02 12:37:39;;;;;;;;;;;10.90;99.90;;;;;;5052466;28;19921;-60
2022/03/02 12:40:09;;;;;;;;;;;11.10;99.90;;;;;;5052851;28;20387;-61
2022/03/02 12:42:36;;;;;;;;;;;10.90;99.90;;;;;;5039320;28;20000;-60
2022/03/02 12:45:02;;;;;;;;;;;11.00;99.90;;;;;;5050771;28;20446;-60
2022/03/02 12:47:32;;;;;;;;;;;11.20;99.90;;;;;;5050826;28;20346;-59
2022/03/02 12:49:59;;;;;;;;;;;11.30;99.90;;;;;;5032811;28;20273;-59
2022/03/02 12:52:27;;;;;;;;;;;11.10;99.90;;;;;;5033266;28;19925;-58
2022/03/02 12:54:55;;;;;;;;;;;11.00;99.90;;;;;;5032151;28;19921;-61
2022/03/02 12:57:24;;;;;;;;;;;11.00;99.90;;;;;;5042108;28;20348;-63
2022/03/02 12:59:51;;;;;;;;;;;11.10;99.90;;;;;;5041393;28;19937;-68
2022/03/02 13:02:18;;;;;;;;;;;11.10;99.90;;;;;;5051135;28;19928;-68
2022/03/02 13:05:12;;;;;;;;;;;10.90;99.90;;;;;;5053050;28;19990;-69
2022/03/02 13:07:41;;;;;;;;;;;11.10;99.90;;;;;;4977582;28;20408;-70
2022/03/02 13:10:08;;;;;;;;;;;11.20;99.90;;;;;;5032809;28;19925;-59
2022/03/02 13:12:38;;;;;;;;;;;11.20;99.90;;;;;;5032672;28;19975;-60
2022/03/02 13:15:24;;;;;;;;;;;11.30;99.90;;;;;;5032749;28;19928;-60
2022/03/02 13:18:05;;;;;;;;;;;11.20;99.90;;;;;;5032617;28;19975;-61
2022/03/02 13:20:32;;;;;;;;;;;11.10;99.90;;;;;;5032220;28;20372;-61
2022/03/02 13:23:11;;;;;;;;;;;11.10;99.90;;;;;;5032589;28;19921;-61
2022/03/02 13:25:37;;;;;;;;;;;11.20;99.90;;;;;;5032411;28;19968;-61
2022/03/02 13:28:10;;;;;;;;;;;11.10;99.90;;;;;;5032431;28;19921;-62
2022/03/02 13:30:36;;;;;;;;;;;11.10;99.90;;;;;;5031804;28;19921;-63
2022/03/02 13:33:04;;;;;;;;;;;11.10;99.90;;;;;;5032706;28;19942;-63
2022/03/02 13:35:31;;;;;;;;;;;11.10;99.90;;;;;;5032558;28;19921;-62
2022/03/02 13:38:03;;;;;;;;;;;11.00;99.90;;;;;;5032240;28;19921;-62
2022/03/02 13:40:36;;;;;;;;;;;11.00;99.90;;;;;;5032194;28;19921;-61
2022/03/02 13:43:27;;;;;;;;;;;11.10;99.90;;;;;;5031915;28;19921;-58
2022/03/02 13:46:08;;;;;;;;;;;11.00;99.90;;;;;;5032337;28;19921;-59
2022/03/02 13:48:46;;;;;;;;;;;10.90;99.90;;;;;;5031789;28;19924;-61
2022/03/02 13:51:13;;;;;;;;;;;10.90;99.90;;;;;;5031931;28;19967;-59
2022/03/02 13:53:40;;;;;;;;;;;10.80;99.90;;;;;;5031780;28;19921;-59
2022/03/02 13:56:08;;;;;;;;;;;10.90;99.90;;;;;;5031917;28;19975;-59
2022/03/02 13:58:35;;;;;;;;;;;11.10;99.90;;;;;;5032166;28;19921;-61
2022/03/02 14:01:15;;;;;;;;;;;11.10;99.90;;;;;;5031940;28;19979;-57
2022/03/02 14:03:44;;;;;;;;;;;11.00;99.90;;;;;;5032523;28;19921;-57
2022/03/02 14:06:11;;;;;;;;;;;10.90;99.90;;;;;;5031950;28;19933;-57
2022/03/02 14:08:41;;;;;;;;;;;10.80;99.90;;;;;;5031766;28;19971;-59
2022/03/02 14:11:08;;;;;;;;;;;10.90;99.90;;;;;;5032612;28;20397;-59
2022/03/02 14:13:35;;;;;;;;;;;10.80;99.90;;;;;;5032169;28;19920;-60
2022/03/02 14:16:02;;;;;;;;;;;10.80;99.90;;;;;;5031354;28;20265;-58
2022/03/02 14:18:29;;;;;;;;;;;10.90;99.90;;;;;;5031490;28;19921;-60
2022/03/02 14:20:56;;;;;;;;;;;10.80;99.90;;;;;;5032187;28;20447;-59
2022/03/02 14:23:23;;;;;;;;;;;10.70;99.90;;;;;;5032100;28;19927;-61
2022/03/02 14:25:53;;;;;;;;;;;10.70;99.90;;;;;;5031861;28;19967;-63
2022/03/02 14:28:20;;;;;;;;;;;10.70;99.90;;;;;;5032281;28;19920;-62
2022/03/02 14:30:47;;;;;;;;;;;10.70;99.90;;;;;;5032539;28;19975;-61